EST,Max TemperatureF,Mean TemperatureF,Min TemperatureF,Max Dew PointF,MeanDew PointF,Min DewpointF,Max Humidity, Mean Humidity, Min Humidity, Max Sea Level PressureIn, Mean Sea Level PressureIn, Min Sea Level PressureIn, Max VisibilityMiles, Mean VisibilityMiles, Min VisibilityMiles, Max Wind SpeedMPH, Mean Wind SpeedMPH, Max Gust SpeedMPH,PrecipitationIn, CloudCover, Events, WindDirDegrees
2014-1-1,48,37,25,30,24,15,92,67,42,30.45,30.34,30.17,10,10,10,15,4,19,0.00,0,,174
2014-1-2,43,36,28,38,32,26,92,84,76,30.15,29.87,29.55,10,4,0,12,4,16,0.30,5,Fog-Rain-Snow,38
2014-1-3,32,23,13,29,13,-1,92,69,45,30.52,29.93,29.54,10,4,0,22,9,31,0.45,5,Fog-Snow,336
2014-1-4,34,20,5,27,13,-1,83,67,51,30.57,30.45,30.31,10,10,10,10,4,12,0.00,1,,183
2014-1-5,62,48,34,58,44,28,93,79,65,30.30,30.06,29.77,10,9,2,21,6,26,0.08,8,Rain-Snow,145
2014-1-6,64,40,16,61,42,-6,93,64,35,30.01,29.64,29.51,10,8,1,29,14,37,0.33,7,Rain,274
2014-1-7,17,13,8,4,-7,-11,73,53,33,30.47,30.32,30.03,10,10,10,25,11,40,0.00,0,,288
2014-1-8,29,20,10,16,4,-2,73,51,29,30.63,30.55,30.48,10,10,10,10,2,15,0.00,0,,310
2014-1-9,38,30,22,23,19,14,81,61,40,30.67,30.60,30.52,10,10,8,16,3,19,0.00,1,,60
2014-1-10,51,39,27,48,37,24,100,91,82,30.53,30.38,30.16,10,2,0,10,4,13,0.42,8,Fog-Rain,65
2014-1-11,67,59,51,,,,99,90,80,30.12,29.74,29.48,,,,12,6,20,0.27,,,-1
2014-1-12,53,42,30,,,,,,,30.15,29.90,29.54,,,,8,3,12,0.00,,,-1
2014-1-13,60,44,28,43,37,32,99,99,99,30.17,30.07,29.94,10,10,10,20,11,30,0.00,0,,194
2014-1-14,55,48,41,48,45,40,93,76,59,29.93,29.83,29.70,10,9,5,13,9,,0.54,5,Rain,197
2014-1-15,55,46,36,,,,,,,30.01,29.94,29.88,,,,,,,0.00,,,-1
2014-1-16,41,34,26,,,,,,,30.01,29.95,29.89,,,,,,,0.00,,,-1
2014-1-17,50,38,26,,,,,,,30.01,29.94,29.83,,,,,,,T,,,-1
2014-1-18,44,35,25,15,11,9,53,45,38,30.00,29.86,29.75,10,10,10,16,10,27,0.00,0,,280
2014-1-19,49,36,22,28,21,10,70,54,37,29.97,29.85,29.76,10,10,10,18,7,26,0.00,1,,224
2014-1-20,55,46,37,28,26,25,64,48,32,29.90,29.76,29.66,10,10,10,17,7,24,0.00,0,,255
2014-1-21,38,28,17,31,22,13,85,75,64,29.90,29.78,29.69,10,4,0,28,14,38,0.45,7,Fog-Rain-Snow,31
2014-1-22,18,12,5,13,1,-7,80,61,42,30.10,29.91,29.77,10,7,0,20,9,31,T,2,Fog-Snow,328
2014-1-23,25,14,2,11,3,-2,87,65,42,30.40,30.25,30.11,10,10,8,13,4,16,0.00,1,,278
2014-1-24,20,14,8,2,-1,-3,69,54,39,30.52,30.40,30.18,10,10,10,15,7,22,0.00,0,,266
2014-1-25,32,25,17,22,13,3,58,49,39,30.14,29.70,29.52,10,8,0,28,14,36,0.05,4,Snow,214
2014-1-26,37,27,16,26,12,4,64,47,29,29.96,29.86,29.65,10,10,10,17,8,26,0.00,2,,223
2014-1-27,51,38,25,32,21,1,60,46,31,30.15,29.85,29.71,10,10,10,20,12,27,0.00,3,,258
2014-1-28,25,19,13,9,-1,-9,80,55,30,30.43,30.32,30.17,10,7,1,16,8,21,0.10,5,Snow,350
2014-1-29,20,13,5,9,4,-4,84,60,35,30.39,30.25,30.18,10,6,1,15,5,20,0.05,4,Snow,331
2014-1-30,30,13,-5,13,10,7,84,62,39,30.49,30.37,30.23,10,10,7,7,2,,0.00,1,,140
2014-1-31,45,28,11,21,15,7,92,62,31,30.26,30.20,30.15,10,9,3,9,1,10,0.00,0,,182